»·PEaware :: N241TM KDEN-KTEX

N241TM :: KDEN-KTEX

FLIGHT INFORMATION

Flight Status: Arrived
Operator: Privately registered:
United States
More flights under this callsign
Pilot: David L. (16466)
Aircraft: CIRRUS VISIONJET
(SF50)
More flights by this aircraft type
Origin: KDEN Denver Intl
United States
Destination: KTEX Telluride Regl
United States
More flights between these airports :: More routes between these airports
Route: BAYLR6 TEHRU ETL
File this flight plan on PilotEdge
Remarks:
Altitude:
(Current/Filed)
24,000ft
Speed:
(Current/Filed)
300kts
Departed: 07-Sep-23 01:07 PM
Arrived: 07-Sep-23 02:13 PM
Distance/Time
Traveled:
189nm/1:06
Distance/Time
To Go:
Arrived

Flight Plot

Page will automatically refresh every two minutes.

Flight plan parsing failed; only flown route is shown


Map Options




Map Legend


Flown Route
Filed Route
Departure Airport
Arrival Airport
Navaid (VOR, NDB)
Fix

Horizontal Profiles

Position Reports

Time Latitude Longitude Heading Altitude Ground
Speed
07-Sep-23 12:44 39.840020 -104.665430 179 5382ft 0kts
07-Sep-23 12:45 39.840020 -104.665431 179 5382ft 0kts
07-Sep-23 12:46 39.840020 -104.665430 179 5382ft 0kts
07-Sep-23 12:47 39.840020 -104.665430 179 5382ft 0kts
07-Sep-23 12:48 39.840020 -104.665430 179 5382ft 0kts
07-Sep-23 12:49 39.840020 -104.665430 179 5382ft 0kts
07-Sep-23 12:50 39.840020 -104.665430 179 5382ft 0kts
07-Sep-23 12:51 39.840020 -104.665430 179 5382ft 0kts
07-Sep-23 12:52 39.840020 -104.665430 179 5382ft 0kts
07-Sep-23 12:53 39.840020 -104.665431 179 5382ft 0kts
07-Sep-23 12:54 39.840020 -104.665430 179 5382ft 0kts
07-Sep-23 12:55 39.840019 -104.665431 179 5382ft 0kts
07-Sep-23 12:56 39.840020 -104.665430 179 5382ft 0kts
07-Sep-23 12:57 39.840020 -104.665430 179 5382ft 0kts
07-Sep-23 12:58 39.840019 -104.665430 179 5382ft 0kts
07-Sep-23 12:59 39.840019 -104.665430 179 5382ft 0kts
07-Sep-23 13:00 39.840020 -104.665430 179 5382ft 0kts
07-Sep-23 13:01 39.839889 -104.663861 51 5392ft 10kts
07-Sep-23 13:02 39.845650 -104.662489 1 5389ft 35kts
07-Sep-23 13:03 39.855623 -104.662376 359 5420ft 35kts
07-Sep-23 13:04 39.864768 -104.662174 31 5405ft 19kts
07-Sep-23 13:05 39.864957 -104.656142 89 5386ft 22kts
07-Sep-23 13:06 39.864880 -104.644517 91 5330ft 41kts
07-Sep-23 13:07 39.864863 -104.642774 92 5322ft 0kts
07-Sep-23 13:08 39.861980 -104.641348 180 5312ft 67kts
07-Sep-23 13:09 39.828279 -104.640995 177 6445ft 142kts
07-Sep-23 13:10 39.794923 -104.658888 237 8485ft 141kts
07-Sep-23 13:11 39.770409 -104.695737 230 10385ft 146kts
07-Sep-23 13:12 39.761100 -104.755195 276 10458ft 202kts
07-Sep-23 13:13 39.768342 -104.829382 276 10435ft 210kts
07-Sep-23 13:14 39.774867 -104.895936 275 12968ft 176kts
07-Sep-23 13:15 39.763511 -104.958291 255 14830ft 181kts
07-Sep-23 13:16 39.749650 -105.021295 254 16706ft 183kts
07-Sep-23 13:17 39.729803 -105.083580 248 18272ft 191kts
07-Sep-23 13:18 39.709544 -105.145491 248 19884ft 186kts
07-Sep-23 13:19 39.689416 -105.206759 249 21334ft 184kts
07-Sep-23 13:20 39.669398 -105.267713 250 22606ft 183kts
07-Sep-23 13:21 39.649359 -105.328526 250 23763ft 183kts
07-Sep-23 13:22 39.629241 -105.389374 250 24748ft 186kts
07-Sep-23 13:23 39.607916 -105.454086 250 25045ft 207kts
07-Sep-23 13:24 39.584093 -105.526035 248 25057ft 224kts
07-Sep-23 13:25 39.559046 -105.601185 249 25080ft 230kts
07-Sep-23 13:26 39.536528 -105.679140 251 25143ft 232kts
07-Sep-23 13:27 39.514508 -105.758661 251 25174ft 236kts
07-Sep-23 13:28 39.492197 -105.838898 251 25217ft 238kts
07-Sep-23 13:29 39.469726 -105.919503 251 25266ft 239kts
07-Sep-23 13:30 39.447000 -106.000759 251 25285ft 241kts
07-Sep-23 13:31 39.424228 -106.081982 251 25292ft 241kts
07-Sep-23 13:32 39.401194 -106.163858 251 25282ft 242kts
07-Sep-23 13:33 39.378165 -106.245572 251 25278ft 242kts
07-Sep-23 13:34 39.355054 -106.327282 250 25271ft 243kts
07-Sep-23 13:35 39.331799 -106.409015 251 25260ft 243kts
07-Sep-23 13:36 39.308418 -106.491161 251 25242ft 243kts
07-Sep-23 13:37 39.285079 -106.572741 251 25230ft 243kts
07-Sep-23 13:38 39.261589 -106.654687 250 25224ft 243kts
07-Sep-23 13:39 39.232706 -106.733006 231 25224ft 249kts
07-Sep-23 13:40 39.184174 -106.797260 230 25218ft 251kts
07-Sep-23 13:41 39.135029 -106.861573 229 25188ft 251kts
07-Sep-23 13:42 39.086038 -106.925452 229 25209ft 250kts
07-Sep-23 13:43 39.037071 -106.989148 230 25219ft 250kts
07-Sep-23 13:44 38.988069 -107.052834 229 25224ft 250kts
07-Sep-23 13:45 38.939042 -107.116367 230 25220ft 251kts
07-Sep-23 13:46 38.889834 -107.180024 230 25215ft 251kts
07-Sep-23 13:47 38.840499 -107.243710 230 25211ft 251kts
07-Sep-23 13:48 38.791187 -107.307224 229 25184ft 252kts
07-Sep-23 13:49 38.741708 -107.370849 229 25199ft 251kts
07-Sep-23 13:50 38.692390 -107.434034 230 25224ft 251kts
07-Sep-23 13:51 38.642214 -107.498295 229 24610ft 261kts
07-Sep-23 13:52 38.590231 -107.564690 229 23337ft 269kts
07-Sep-23 13:53 38.536800 -107.632755 229 21920ft 274kts
07-Sep-23 13:54 38.483018 -107.701125 228 21336ft 267kts
07-Sep-23 13:55 38.431392 -107.766673 228 21352ft 258kts
07-Sep-23 13:56 38.382587 -107.835280 246 20441ft 270kts
07-Sep-23 13:57 38.349689 -107.923139 246 18963ft 278kts
07-Sep-23 13:58 38.316518 -108.012546 245 17454ft 281kts
07-Sep-23 13:59 38.282961 -108.102612 245 15945ft 283kts
07-Sep-23 14:00 38.250303 -108.190057 245 14710ft 266kts
07-Sep-23 14:01 38.221859 -108.266000 245 14546ft 210kts
07-Sep-23 14:02 38.197844 -108.330037 245 14557ft 196kts
07-Sep-23 14:03 38.154060 -108.324449 137 13482ft 223kts
07-Sep-23 14:04 38.102785 -108.290956 162 13415ft 198kts
07-Sep-23 14:05 38.053268 -108.265302 163 13362ft 189kts
07-Sep-23 14:06 38.024606 -108.207440 113 13272ft 210kts
07-Sep-23 14:07 38.003424 -108.138529 113 13389ft 194kts
07-Sep-23 14:08 37.988873 -108.075046 106 12042ft 176kts
07-Sep-23 14:09 37.978884 -108.027266 105 11117ft 115kts
07-Sep-23 14:10 37.970696 -107.988633 111 10383ft 131kts
07-Sep-23 14:11 37.961214 -107.943162 105 9513ft 125kts
07-Sep-23 14:12 37.954128 -107.910217 105 8998ft 13kts
07-Sep-23 14:13 37.953143 -107.905549 104 9030ft 20kts
07-Sep-23 14:14 37.953678 -107.901244 358 9062ft 10kts

Navigation Log

Ident Type
Flight plan parsing failed, navigation log unavailable